Wedgefield, SC (29168)

10:54 AM EST on February 28, 2015 (GMT -0500)
Garden Gate | Change Station
CLOSE
Current Station
Personal Weather Station
Location: Sumter, SC
Elevation: 200 ft
Nearby Weather Stations

Elev 200 ft 33.94 °N, 80.42 °W | Updated 19 seconds ago

Mostly Cloudy
Mostly Cloudy
42.1 °F
Feels Like 39 °F
N
4.6
Wind Variable Wind from NW
Gusts 4.6 mph

Today
High -- | Low -- °F
--% Chance of Precip.
Yesterday
High -- | Low -- °F
Precip. -- in
6:52 AM 6:17 PM
Waxing Gibbous, 78% visible
Pressure 30.66 in
Visibility 10.0 miles
Clouds Few 14000 ft
Scattered Clouds 16000 ft
Windchill 39 °F
Dew Point 29 °F
Humidity 59%
Rainfall 0.00 in
Snow Depth Not available.
UV 3 out of 12
Pollen 8.30 out of 12
Air Quality Not available.
Flu Activity Not available.
METAR KSSC 281458Z AUTO 07009KT 10SM FEW140 SCT160 03/M03 A3065 RMK AO2 SLP382 T00341027 51014 $

More Conditions Fewer Conditions

Pressure 30.66 in
Visibility 10.0 miles
Clouds Few 14000 ft
Scattered Clouds 16000 ft
Windchill 39 °F
Dew Point 29 °F
Humidity 59%
Rainfall 0.00 in
Snow Depth Not available.
UV 3 out of 12
Pollen 8.30 out of 12
Air Quality Not available.
Flu Activity Not available.
METAR KSSC 281458Z AUTO 07009KT 10SM FEW140 SCT160 03/M03 A3065 RMK AO2 SLP382 T00341027 51014 $

More Conditions Fewer Conditions

10-Day Weather Forecast

Almanac

Astronomy

Feb. 28, 2015 Rise Set
Actual Time
Civil Twilight
Nautical Twilight
Astronomical Twilight
Moon
Length of Visible Light
Length of Day
Tomorrow will be .
, % of the Moon is Illuminated

Today's Extremes

State Highs State Lows

Community

WunderPhotos

Upload Photos

1,801,055 photos uploaded!

WunderBlogs® & News

Nearby

Air Quality

  Air Quality AQ Index Pollutant
Not available.

Snow Depth

Station Depth Elevation

Earthquake Activity

City Distance Mag. Time & Date
Minimum magnitude displayed is 2.5.

Coastal Water Temperatures

Place Temperature

Nearby Weather Stations